createdAt,value
2022-12-31T00:01:38.804Z,2.48
2022-12-31T00:04:05.625Z,2.26
2022-12-31T00:06:34.593Z,2.36
2022-12-31T00:09:04.608Z,2.35
2022-12-31T00:11:32.218Z,2.44
2022-12-31T00:13:59.716Z,2.52
2022-12-31T00:16:32.541Z,2.35
2022-12-31T00:19:00.351Z,2.26
2022-12-31T00:21:32.463Z,2.34
2022-12-31T00:23:59.834Z,2.46
2022-12-31T00:26:29.515Z,2.46
2022-12-31T00:28:57.453Z,2.25
2022-12-31T00:31:28.252Z,2.42
2022-12-31T00:33:56.289Z,2.40
2022-12-31T00:36:26.017Z,2.41
2022-12-31T00:38:54.911Z,2.30
2022-12-31T00:41:22.874Z,2.27
2022-12-31T00:43:50.682Z,2.21
2022-12-31T00:46:18.380Z,2.12
2022-12-31T00:48:45.632Z,2.15
2022-12-31T00:51:14.863Z,2.10
2022-12-31T00:53:42.421Z,1.84
2022-12-31T00:56:18.083Z,2.13
2022-12-31T00:58:46.115Z,2.21
2022-12-31T01:01:17.790Z,2.24
2022-12-31T01:03:45.261Z,2.31
2022-12-31T01:06:12.451Z,2.15
2022-12-31T01:08:40.044Z,2.41
2022-12-31T01:11:07.305Z,2.26
2022-12-31T01:13:34.597Z,2.15
2022-12-31T01:16:12.839Z,2.07
2022-12-31T01:18:40.467Z,2.10
2022-12-31T01:21:09.682Z,2.17
2022-12-31T01:23:37.166Z,2.17
2022-12-31T01:26:07.132Z,2.24
2022-12-31T01:28:34.801Z,2.24
2022-12-31T01:31:10.246Z,2.10
2022-12-31T01:33:38.023Z,1.99
2022-12-31T01:36:07.740Z,2.18
2022-12-31T01:38:35.935Z,2.17
2022-12-31T01:41:03.920Z,2.18
2022-12-31T01:43:54.491Z,2.22
2022-12-31T01:46:42.597Z,2.34
2022-12-31T01:49:17.315Z,2.16
2022-12-31T01:51:48.833Z,2.16
2022-12-31T01:54:18.947Z,2.21
2022-12-31T01:56:48.133Z,2.17
2022-12-31T01:59:18.307Z,2.51
2022-12-31T02:01:45.461Z,2.39
2022-12-31T02:04:14.829Z,2.39
2022-12-31T02:06:51.105Z,2.24
2022-12-31T02:09:18.044Z,2.43
2022-12-31T02:11:44.894Z,2.44
2022-12-31T02:14:19.913Z,2.34
2022-12-31T02:17:14.812Z,2.51
2022-12-31T02:20:08.988Z,2.35
2022-12-31T02:23:00.611Z,2.45
2022-12-31T02:26:00.080Z,2.57
2022-12-31T02:28:36.098Z,2.33
2022-12-31T02:31:30.408Z,2.46
2022-12-31T02:34:06.488Z,2.47
2022-12-31T02:36:40.587Z,2.44
2022-12-31T02:39:09.216Z,2.44
2022-12-31T02:41:36.168Z,2.50
2022-12-31T02:44:25.549Z,2.49
2022-12-31T02:47:01.787Z,2.54
2022-12-31T02:50:12.017Z,2.73
2022-12-31T02:53:12.709Z,2.63
2022-12-31T02:56:03.516Z,2.71
2022-12-31T02:58:36.586Z,2.73
2022-12-31T03:01:03.832Z,2.63
2022-12-31T03:03:31.841Z,2.47
2022-12-31T03:06:19.602Z,2.63
2022-12-31T03:08:46.696Z,2.67
2022-12-31T03:11:13.593Z,2.61
2022-12-31T03:13:40.594Z,2.66
2022-12-31T03:16:25.957Z,2.63
2022-12-31T03:18:52.998Z,2.68
2022-12-31T03:21:39.011Z,2.55
2022-12-31T03:24:06.171Z,2.57
2022-12-31T03:26:32.992Z,2.55
2022-12-31T03:28:59.831Z,2.57
2022-12-31T03:31:28.226Z,2.59
2022-12-31T03:33:55.195Z,2.58
2022-12-31T03:36:22.083Z,2.67
2022-12-31T03:38:52.718Z,2.73
2022-12-31T03:41:19.930Z,2.65
2022-12-31T03:43:46.680Z,2.76
2022-12-31T03:46:13.652Z,2.63
2022-12-31T03:48:40.523Z,2.73
2022-12-31T03:51:07.560Z,2.72
2022-12-31T03:53:34.416Z,2.88
2022-12-31T03:56:01.293Z,2.75
2022-12-31T03:58:28.084Z,2.86
2022-12-31T04:00:55.167Z,2.84
2022-12-31T04:03:22.139Z,2.80
2022-12-31T04:05:55.917Z,2.82
2022-12-31T04:08:23.261Z,2.88
2022-12-31T04:10:50.295Z,2.90
2022-12-31T04:13:35.747Z,2.69
2022-12-31T04:16:02.749Z,2.72
2022-12-31T04:18:29.904Z,2.70
2022-12-31T04:21:02.515Z,2.70
2022-12-31T04:23:29.564Z,2.61
2022-12-31T04:25:57.667Z,2.50
2022-12-31T04:28:24.628Z,2.45
2022-12-31T04:30:51.482Z,2.38
2022-12-31T04:33:18.427Z,2.33
2022-12-31T04:35:45.313Z,2.25
2022-12-31T04:38:12.247Z,2.24
2022-12-31T04:40:39.099Z,2.16
2022-12-31T04:43:06.148Z,2.01
2022-12-31T04:45:33.075Z,2.23
2022-12-31T04:47:59.983Z,2.12
2022-12-31T04:50:26.804Z,2.00
2022-12-31T04:52:53.773Z,1.96
2022-12-31T04:55:20.575Z,2.03
2022-12-31T04:57:47.448Z,2.04
2022-12-31T05:00:14.652Z,1.98
2022-12-31T05:02:41.678Z,1.95
2022-12-31T05:05:09.226Z,2.04
2022-12-31T05:07:36.065Z,1.92
2022-12-31T05:10:03.038Z,2.09
2022-12-31T05:12:30.016Z,2.13
2022-12-31T05:14:56.949Z,2.02
2022-12-31T05:17:23.806Z,2.00
2022-12-31T05:19:50.657Z,2.05
2022-12-31T05:22:17.616Z,1.99
2022-12-31T05:24:44.457Z,1.99
2022-12-31T05:27:11.474Z,2.12
2022-12-31T05:29:38.273Z,2.09
2022-12-31T05:32:05.301Z,2.08
2022-12-31T05:34:32.151Z,2.00
2022-12-31T05:36:58.995Z,2.07
2022-12-31T05:39:25.826Z,2.18
2022-12-31T05:41:52.760Z,2.10
2022-12-31T05:44:19.692Z,2.16
2022-12-31T05:46:46.764Z,2.16
2022-12-31T05:49:13.715Z,2.22
2022-12-31T05:51:40.703Z,2.28
2022-12-31T05:54:07.658Z,2.31
2022-12-31T05:56:35.643Z,2.25
2022-12-31T05:59:02.496Z,2.21
2022-12-31T06:01:29.539Z,2.27
2022-12-31T06:03:56.498Z,2.31
2022-12-31T06:06:23.479Z,2.23
2022-12-31T06:08:53.470Z,2.33
2022-12-31T06:11:20.507Z,2.50
2022-12-31T06:13:47.343Z,2.42
2022-12-31T06:16:14.403Z,2.47
2022-12-31T06:18:41.590Z,2.18
2022-12-31T06:21:08.584Z,2.27
2022-12-31T06:23:35.417Z,2.24
2022-12-31T06:26:04.183Z,2.30
2022-12-31T06:28:50.051Z,2.55
2022-12-31T06:31:17.737Z,2.36
2022-12-31T06:33:44.723Z,2.61
2022-12-31T06:36:13.786Z,2.58
2022-12-31T06:38:42.825Z,2.68
2022-12-31T06:41:13.019Z,2.65
2022-12-31T06:43:40.952Z,2.37
2022-12-31T06:46:26.683Z,2.64
2022-12-31T06:48:53.894Z,2.62
2022-12-31T06:51:21.953Z,2.44
2022-12-31T06:53:50.616Z,2.47
2022-12-31T06:56:26.524Z,2.48
2022-12-31T06:58:58.085Z,2.67
2022-12-31T07:01:55.956Z,2.48
2022-12-31T07:04:35.154Z,2.50
2022-12-31T07:07:10.654Z,2.67
2022-12-31T07:09:50.711Z,2.63
2022-12-31T07:12:38.431Z,2.82
2022-12-31T07:15:15.607Z,2.63
2022-12-31T07:18:20.663Z,2.87
2022-12-31T07:20:51.689Z,2.76
2022-12-31T07:23:27.298Z,2.83
2022-12-31T07:26:08.452Z,2.85
2022-12-31T07:28:53.474Z,2.70
2022-12-31T07:31:36.431Z,2.86
2022-12-31T07:34:38.588Z,2.92
2022-12-31T07:37:23.736Z,3.00
2022-12-31T07:40:06.054Z,3.24
2022-12-31T07:43:07.668Z,3.36
2022-12-31T07:45:46.952Z,3.28
2022-12-31T07:48:27.676Z,3.16
2022-12-31T07:50:57.423Z,3.27
2022-12-31T07:53:46.382Z,3.46
2022-12-31T07:56:14.357Z,3.48
2022-12-31T07:58:41.170Z,3.26
2022-12-31T08:01:12.404Z,3.36
2022-12-31T08:03:57.611Z,3.46
2022-12-31T08:06:42.555Z,3.82
2022-12-31T08:09:41.856Z,3.77
2022-12-31T08:12:09.400Z,3.64
2022-12-31T08:14:54.936Z,3.62
2022-12-31T08:17:22.347Z,3.65
2022-12-31T08:19:49.857Z,3.66
2022-12-31T08:22:32.630Z,3.62
2022-12-31T08:25:05.817Z,3.61
2022-12-31T08:27:32.657Z,3.61
2022-12-31T08:30:11.884Z,3.80
2022-12-31T08:33:03.309Z,3.61
2022-12-31T08:35:36.229Z,3.73
2022-12-31T08:38:37.058Z,3.77
2022-12-31T08:41:42.615Z,3.88
2022-12-31T08:44:16.107Z,3.75
2022-12-31T08:47:18.112Z,3.82
2022-12-31T08:49:45.326Z,3.64
2022-12-31T08:52:24.601Z,3.88
2022-12-31T08:55:10.788Z,3.88
2022-12-31T08:57:53.888Z,3.89
2022-12-31T09:00:21.729Z,3.88
2022-12-31T09:02:57.513Z,3.97
2022-12-31T09:05:52.234Z,3.93
2022-12-31T09:08:34.450Z,3.81
2022-12-31T09:11:20.848Z,3.92
2022-12-31T09:14:04.852Z,3.93
2022-12-31T09:16:43.959Z,3.83
2022-12-31T09:19:29.553Z,3.87
2022-12-31T09:21:56.767Z,3.80
2022-12-31T09:24:23.985Z,3.83
2022-12-31T09:27:12.390Z,3.76
2022-12-31T09:30:04.708Z,3.92
2022-12-31T09:33:00.404Z,3.94
2022-12-31T09:35:46.701Z,3.68
2022-12-31T09:38:31.644Z,3.72
2022-12-31T09:41:30.268Z,3.56
2022-12-31T09:44:05.803Z,3.74
2022-12-31T09:46:57.422Z,3.77
2022-12-31T09:49:42.399Z,3.99
2022-12-31T09:52:29.798Z,3.92
2022-12-31T09:55:32.161Z,3.87
2022-12-31T09:58:22.446Z,3.83
2022-12-31T10:00:49.365Z,3.70
2022-12-31T10:03:43.130Z,3.89
2022-12-31T10:06:24.626Z,3.81
2022-12-31T10:09:30.463Z,3.83
2022-12-31T10:12:05.317Z,3.75
2022-12-31T10:15:15.675Z,3.72
2022-12-31T10:17:56.163Z,3.67
2022-12-31T10:20:51.043Z,3.75
2022-12-31T10:23:55.646Z,3.83
2022-12-31T10:26:53.428Z,3.80
2022-12-31T10:29:39.129Z,3.47
2022-12-31T10:32:31.678Z,3.45
2022-12-31T10:35:28.315Z,3.55
2022-12-31T10:38:10.717Z,3.51
2022-12-31T10:40:44.041Z,3.36
2022-12-31T10:43:32.729Z,3.56
2022-12-31T10:46:22.874Z,3.48
2022-12-31T10:48:50.267Z,3.47
2022-12-31T10:51:26.003Z,3.45
2022-12-31T10:54:24.755Z,3.50
2022-12-31T10:57:12.902Z,3.49
2022-12-31T11:00:02.231Z,3.44
2022-12-31T11:02:41.095Z,3.39
2022-12-31T11:05:39.332Z,3.34
2022-12-31T11:08:18.461Z,3.16
2022-12-31T11:11:22.484Z,3.46
2022-12-31T11:14:01.681Z,3.35
2022-12-31T11:16:46.741Z,3.30
2022-12-31T11:19:26.843Z,3.24
2022-12-31T11:22:16.727Z,3.33
2022-12-31T11:25:08.243Z,3.33
2022-12-31T11:27:38.485Z,3.32
2022-12-31T11:30:19.853Z,3.46
2022-12-31T11:33:32.835Z,3.38
2022-12-31T11:36:12.212Z,3.26
2022-12-31T11:38:54.562Z,3.21
2022-12-31T11:41:36.032Z,3.29
2022-12-31T11:44:35.917Z,3.24
2022-12-31T11:47:41.164Z,3.16
2022-12-31T11:50:22.218Z,3.29
2022-12-31T11:53:00.209Z,3.16
2022-12-31T11:55:56.535Z,3.28
2022-12-31T11:58:23.643Z,3.29
2022-12-31T12:00:59.507Z,3.10
2022-12-31T12:03:27.798Z,3.01
2022-12-31T12:05:57.147Z,3.00
2022-12-31T12:08:26.175Z,3.02
2022-12-31T12:11:22.701Z,2.95
2022-12-31T12:13:49.862Z,2.85
2022-12-31T12:16:17.169Z,2.83
2022-12-31T12:18:50.439Z,2.84
2022-12-31T12:21:21.780Z,2.84
2022-12-31T12:24:22.931Z,2.67
2022-12-31T12:26:49.870Z,2.55
2022-12-31T12:29:22.889Z,2.53
2022-12-31T12:32:02.134Z,2.60
2022-12-31T12:34:32.400Z,2.57
2022-12-31T12:37:00.011Z,2.58
2022-12-31T12:39:35.152Z,2.62
2022-12-31T12:42:05.638Z,2.51
2022-12-31T12:44:33.146Z,2.61
2022-12-31T12:47:07.074Z,2.51
2022-12-31T12:49:47.210Z,2.64
2022-12-31T12:52:23.169Z,2.49
2022-12-31T12:54:56.438Z,2.61
2022-12-31T12:57:35.082Z,2.54
2022-12-31T13:00:12.998Z,2.52
2022-12-31T13:03:30.598Z,2.24
2022-12-31T13:06:16.580Z,2.50
2022-12-31T13:09:02.578Z,2.47
2022-12-31T13:11:38.336Z,2.43
2022-12-31T13:14:26.763Z,2.27
2022-12-31T13:17:27.606Z,2.50
2022-12-31T13:20:31.966Z,2.44
2022-12-31T13:23:25.440Z,2.27
2022-12-31T13:26:16.630Z,2.34
2022-12-31T13:28:47.931Z,2.27
2022-12-31T13:31:36.552Z,2.45
2022-12-31T13:34:14.277Z,2.37
2022-12-31T13:36:43.353Z,2.31
2022-12-31T13:39:25.541Z,2.28
2022-12-31T13:41:56.341Z,2.47
2022-12-31T13:44:34.454Z,2.36
2022-12-31T13:47:19.058Z,2.50
2022-12-31T13:49:57.363Z,2.57
2022-12-31T13:52:40.293Z,2.72
2022-12-31T13:55:19.311Z,2.65
2022-12-31T13:57:52.860Z,2.58
2022-12-31T14:00:32.395Z,2.77
2022-12-31T14:03:14.514Z,2.61
2022-12-31T14:05:53.960Z,2.74
2022-12-31T14:08:20.993Z,2.68
2022-12-31T14:11:00.057Z,2.85
2022-12-31T14:14:07.041Z,2.78
2022-12-31T14:16:45.787Z,2.48
2022-12-31T14:19:12.799Z,2.62
2022-12-31T14:21:47.745Z,2.41
2022-12-31T14:24:35.443Z,2.55
2022-12-31T14:27:08.643Z,2.68
2022-12-31T14:29:44.349Z,2.57
2022-12-31T14:32:14.180Z,2.43
2022-12-31T14:35:06.406Z,2.48
2022-12-31T14:37:52.052Z,2.42
2022-12-31T14:40:43.735Z,2.36
2022-12-31T14:43:29.236Z,2.19
2022-12-31T14:46:11.675Z,2.19
2022-12-31T14:48:41.355Z,1.98
2022-12-31T14:51:09.421Z,1.52
2022-12-31T14:53:36.400Z,1.81
2022-12-31T14:56:31.331Z,1.78
2022-12-31T14:59:02.364Z,1.86
2022-12-31T15:01:29.983Z,2.06
2022-12-31T15:03:58.368Z,1.94
2022-12-31T15:06:37.741Z,1.93
2022-12-31T15:09:19.875Z,1.96
2022-12-31T15:12:14.178Z,1.92
2022-12-31T15:14:46.672Z,1.96
2022-12-31T15:17:22.573Z,2.03
2022-12-31T15:20:18.068Z,1.93
2022-12-31T15:22:49.606Z,1.95
2022-12-31T15:25:41.521Z,1.92
2022-12-31T15:28:24.898Z,1.70
2022-12-31T15:30:56.345Z,1.97
2022-12-31T15:33:36.379Z,1.87
2022-12-31T15:36:18.879Z,1.69
2022-12-31T15:38:46.597Z,1.74
2022-12-31T15:41:19.528Z,1.83
2022-12-31T15:43:51.852Z,1.81
2022-12-31T15:46:24.057Z,1.76
2022-12-31T15:49:03.760Z,1.59
2022-12-31T15:51:46.510Z,1.77
2022-12-31T15:54:24.732Z,1.59
2022-12-31T15:56:53.377Z,1.54
2022-12-31T15:59:21.924Z,1.69
2022-12-31T16:01:49.609Z,1.55
2022-12-31T16:04:20.392Z,1.71
2022-12-31T16:06:50.921Z,1.74
2022-12-31T16:09:25.339Z,1.66
2022-12-31T16:11:54.890Z,1.65
2022-12-31T16:14:36.801Z,1.66
2022-12-31T16:17:04.691Z,1.72
2022-12-31T16:19:33.153Z,1.80
2022-12-31T16:22:08.194Z,1.56
2022-12-31T16:24:48.873Z,1.68
2022-12-31T16:27:24.927Z,1.63
2022-12-31T16:30:30.280Z,1.69
2022-12-31T16:33:05.590Z,1.62
2022-12-31T16:35:34.788Z,1.63
2022-12-31T16:38:01.584Z,1.57
2022-12-31T16:40:29.233Z,1.54
2022-12-31T16:42:56.189Z,1.52
2022-12-31T16:45:38.451Z,1.56
2022-12-31T16:48:17.365Z,1.73
2022-12-31T16:50:56.289Z,1.67
2022-12-31T16:53:27.421Z,1.54
2022-12-31T16:56:09.651Z,1.61
2022-12-31T16:58:44.242Z,1.51
2022-12-31T17:01:25.456Z,1.54
2022-12-31T17:04:00.219Z,1.49
2022-12-31T17:06:27.513Z,1.48
2022-12-31T17:08:54.457Z,1.36
2022-12-31T17:11:57.813Z,1.12
2022-12-31T17:14:27.743Z,1.27
2022-12-31T17:17:03.164Z,1.26
2022-12-31T17:19:49.357Z,1.23
2022-12-31T17:22:43.625Z,1.24
2022-12-31T17:25:28.956Z,1.24
2022-12-31T17:28:23.472Z,1.19
2022-12-31T17:30:51.618Z,1.13
2022-12-31T17:33:21.208Z,1.21
2022-12-31T17:35:57.044Z,1.15
2022-12-31T17:38:31.848Z,1.17
2022-12-31T17:41:14.561Z,1.15
2022-12-31T17:43:42.703Z,1.15
2022-12-31T17:46:13.415Z,1.22
2022-12-31T17:48:41.748Z,1.15
2022-12-31T17:51:08.581Z,1.31
2022-12-31T17:53:37.022Z,1.30
2022-12-31T17:56:07.420Z,1.22
2022-12-31T17:58:54.315Z,1.51
2022-12-31T18:01:27.643Z,1.33
2022-12-31T18:03:56.082Z,1.25
2022-12-31T18:06:24.521Z,1.27
2022-12-31T18:08:57.808Z,1.23
2022-12-31T18:11:29.352Z,1.49
2022-12-31T18:13:56.489Z,1.56
2022-12-31T18:16:23.780Z,1.53
2022-12-31T18:18:50.855Z,1.36
2022-12-31T18:21:44.219Z,1.59
2022-12-31T18:24:34.577Z,1.30
2022-12-31T18:27:01.986Z,1.50
2022-12-31T18:29:28.883Z,1.44
2022-12-31T18:31:56.241Z,1.46
2022-12-31T18:34:23.629Z,1.58
2022-12-31T18:36:50.558Z,1.57
2022-12-31T18:39:36.803Z,1.53
2022-12-31T18:42:04.746Z,1.50
2022-12-31T18:44:32.071Z,1.40
2022-12-31T18:46:59.484Z,1.38
2022-12-31T18:49:26.589Z,1.38
2022-12-31T18:51:53.769Z,1.37
2022-12-31T18:54:21.333Z,1.39
2022-12-31T18:56:52.511Z,1.45
2022-12-31T18:59:22.715Z,1.52
2022-12-31T19:01:50.113Z,1.61
2022-12-31T19:04:27.682Z,1.61
2022-12-31T19:07:00.046Z,1.51
2022-12-31T19:09:45.940Z,1.73
2022-12-31T19:12:18.367Z,1.76
2022-12-31T19:14:45.785Z,1.82
2022-12-31T19:17:13.087Z,1.69
2022-12-31T19:19:40.608Z,1.63
2022-12-31T19:22:15.524Z,1.71
2022-12-31T19:24:43.948Z,1.77
2022-12-31T19:27:11.350Z,1.53
2022-12-31T19:29:56.981Z,1.84
2022-12-31T19:32:24.290Z,1.82
2022-12-31T19:34:53.913Z,1.74
2022-12-31T19:37:22.893Z,1.71
2022-12-31T19:40:13.567Z,1.58
2022-12-31T19:42:41.069Z,1.57
2022-12-31T19:45:18.327Z,1.73
2022-12-31T19:47:46.685Z,1.65
2022-12-31T19:50:16.786Z,1.66
2022-12-31T19:52:45.623Z,1.70
2022-12-31T19:55:15.793Z,1.61
2022-12-31T19:57:42.814Z,1.69
2022-12-31T20:00:11.674Z,1.91
2022-12-31T20:02:39.029Z,1.77
2022-12-31T20:05:07.167Z,1.89
2022-12-31T20:07:34.752Z,1.92
2022-12-31T20:10:41.089Z,1.90
2022-12-31T20:13:10.687Z,2.07
2022-12-31T20:15:39.349Z,2.02
2022-12-31T20:18:07.417Z,1.83
2022-12-31T20:20:34.438Z,1.98
2022-12-31T20:23:01.543Z,2.18
2022-12-31T20:25:29.349Z,2.13
2022-12-31T20:27:56.450Z,2.04
2022-12-31T20:30:24.128Z,1.94
2022-12-31T20:32:56.484Z,2.00
2022-12-31T20:35:23.555Z,2.18
2022-12-31T20:37:53.026Z,2.18
2022-12-31T20:40:20.777Z,2.33
2022-12-31T20:42:47.747Z,2.41
2022-12-31T20:45:14.641Z,2.52
2022-12-31T20:47:42.994Z,2.54
2022-12-31T20:50:12.008Z,2.66
2022-12-31T20:52:39.853Z,2.73
2022-12-31T20:55:07.332Z,2.82
2022-12-31T20:57:52.887Z,2.96
2022-12-31T21:00:20.157Z,2.95
2022-12-31T21:02:56.301Z,3.04
2022-12-31T21:05:43.232Z,3.13
2022-12-31T21:08:10.404Z,3.31
2022-12-31T21:10:37.222Z,3.16
2022-12-31T21:13:04.598Z,3.22
2022-12-31T21:15:31.551Z,3.31
2022-12-31T21:17:59.892Z,3.17
2022-12-31T21:20:27.887Z,3.32
2022-12-31T21:22:55.106Z,3.23
2022-12-31T21:25:22.577Z,3.38
2022-12-31T21:27:49.690Z,3.39
2022-12-31T21:30:18.815Z,3.45
2022-12-31T21:32:46.283Z,3.43
2022-12-31T21:38:02.203Z,3.54
2022-12-31T21:40:30.558Z,3.52
2022-12-31T21:42:58.427Z,3.60
2022-12-31T21:45:25.919Z,3.59
2022-12-31T21:47:52.904Z,3.62
2022-12-31T21:50:19.976Z,3.49
2022-12-31T21:52:46.937Z,3.42
2022-12-31T21:55:13.829Z,3.18
2022-12-31T21:58:07.135Z,3.38
2022-12-31T22:00:44.020Z,3.52
2022-12-31T22:03:12.419Z,3.38
2022-12-31T22:05:50.227Z,3.47
2022-12-31T22:08:17.775Z,3.38
2022-12-31T22:10:52.163Z,3.41
2022-12-31T22:13:20.107Z,3.39
2022-12-31T22:15:49.097Z,3.25
2022-12-31T22:18:35.832Z,3.39
2022-12-31T22:21:23.716Z,3.31
2022-12-31T22:23:53.375Z,3.27
2022-12-31T22:26:22.995Z,3.32
2022-12-31T22:28:50.657Z,3.13
2022-12-31T22:31:20.296Z,3.20
2022-12-31T22:33:47.756Z,3.23
2022-12-31T22:36:17.745Z,3.11
2022-12-31T22:38:45.274Z,3.32
2022-12-31T22:41:18.205Z,3.19
2022-12-31T22:43:48.496Z,3.17
2022-12-31T22:46:18.908Z,3.27
2022-12-31T22:48:46.515Z,3.10
2022-12-31T22:51:14.947Z,3.17
2022-12-31T22:53:42.095Z,2.78
2022-12-31T22:56:11.406Z,2.82
2022-12-31T22:58:38.765Z,2.80
2022-12-31T23:01:07.461Z,2.72
2022-12-31T23:03:34.980Z,2.64
2022-12-31T23:06:01.989Z,2.66
2022-12-31T23:08:28.821Z,2.49
2022-12-31T23:10:58.382Z,2.64
2022-12-31T23:13:25.999Z,2.57
2022-12-31T23:15:52.831Z,2.43
2022-12-31T23:18:19.678Z,2.43
2022-12-31T23:20:46.547Z,2.63
2022-12-31T23:23:16.198Z,2.55
2022-12-31T23:25:46.583Z,2.57
2022-12-31T23:28:19.620Z,2.70
2022-12-31T23:30:46.555Z,2.73
2022-12-31T23:33:19.981Z,2.55
2022-12-31T23:35:47.252Z,2.50
2022-12-31T23:38:16.290Z,2.57
2022-12-31T23:40:43.753Z,2.66
2022-12-31T23:43:19.761Z,2.66
2022-12-31T23:45:46.668Z,2.70
2022-12-31T23:48:13.554Z,2.74
2022-12-31T23:50:41.023Z,2.64
2022-12-31T23:53:08.133Z,2.66
2022-12-31T23:55:35.033Z,2.49
2022-12-31T23:58:01.953Z,2.38
